sensor_id;sensor_type;location;lat;lon;timestamp;P1;durP1;ratioP1;P2;durP2;ratioP2
26963;SDS011;14521;48.148;-1.656;2023-04-25T00:00:08;1.38;;;0.80;;
26963;SDS011;14521;48.148;-1.656;2023-04-25T00:03:34;1.13;;;0.70;;
26963;SDS011;14521;48.148;-1.656;2023-04-25T00:06:57;2.25;;;1.05;;
26963;SDS011;14521;48.148;-1.656;2023-04-25T00:10:23;1.42;;;0.77;;
26963;SDS011;14521;48.148;-1.656;2023-04-25T00:13:45;2.40;;;1.08;;
26963;SDS011;14521;48.148;-1.656;2023-04-25T00:17:08;2.72;;;1.00;;
26963;SDS011;14521;48.148;-1.656;2023-04-25T00:20:30;1.15;;;0.90;;
26963;SDS011;14521;48.148;-1.656;2023-04-25T00:23:52;1.60;;;0.77;;
26963;SDS011;14521;48.148;-1.656;2023-04-25T00:27:15;1.55;;;1.10;;
26963;SDS011;14521;48.148;-1.656;2023-04-25T00:30:38;2.30;;;0.82;;
26963;SDS011;14521;48.148;-1.656;2023-04-25T00:34:00;0.95;;;0.80;;
26963;SDS011;14521;48.148;-1.656;2023-04-25T00:37:23;2.90;;;0.82;;
26963;SDS011;14521;48.148;-1.656;2023-04-25T00:40:45;3.25;;;0.80;;
26963;SDS011;14521;48.148;-1.656;2023-04-25T00:44:08;3.53;;;1.13;;
26963;SDS011;14521;48.148;-1.656;2023-04-25T00:47:33;1.30;;;0.82;;
26963;SDS011;14521;48.148;-1.656;2023-04-25T00:50:57;1.27;;;0.82;;
26963;SDS011;14521;48.148;-1.656;2023-04-25T00:54:20;3.72;;;0.90;;
26963;SDS011;14521;48.148;-1.656;2023-04-25T00:57:43;3.17;;;1.15;;
26963;SDS011;14521;48.148;-1.656;2023-04-25T01:01:05;2.25;;;0.93;;
26963;SDS011;14521;48.148;-1.656;2023-04-25T01:04:28;1.73;;;0.70;;
26963;SDS011;14521;48.148;-1.656;2023-04-25T01:07:50;1.40;;;0.85;;
26963;SDS011;14521;48.148;-1.656;2023-04-25T01:11:13;2.78;;;1.00;;
26963;SDS011;14521;48.148;-1.656;2023-04-25T01:14:36;1.73;;;1.00;;
26963;SDS011;14521;48.148;-1.656;2023-04-25T01:17:59;3.58;;;1.20;;
26963;SDS011;14521;48.148;-1.656;2023-04-25T01:21:22;1.33;;;0.80;;
26963;SDS011;14521;48.148;-1.656;2023-04-25T01:24:47;5.85;;;1.23;;
26963;SDS011;14521;48.148;-1.656;2023-04-25T01:28:10;1.00;;;0.90;;
26963;SDS011;14521;48.148;-1.656;2023-04-25T01:31:33;1.25;;;0.80;;
26963;SDS011;14521;48.148;-1.656;2023-04-25T01:34:56;1.42;;;0.73;;
26963;SDS011;14521;48.148;-1.656;2023-04-25T01:38:20;1.60;;;0.70;;
26963;SDS011;14521;48.148;-1.656;2023-04-25T01:41:43;2.35;;;0.68;;
26963;SDS011;14521;48.148;-1.656;2023-04-25T01:45:06;2.95;;;1.00;;
26963;SDS011;14521;48.148;-1.656;2023-04-25T01:48:30;2.03;;;0.88;;
26963;SDS011;14521;48.148;-1.656;2023-04-25T01:51:52;2.45;;;0.90;;
26963;SDS011;14521;48.148;-1.656;2023-04-25T01:55:15;1.13;;;0.77;;
26963;SDS011;14521;48.148;-1.656;2023-04-25T01:58:48;1.27;;;0.98;;
26963;SDS011;14521;48.148;-1.656;2023-04-25T02:02:10;3.05;;;0.90;;
26963;SDS011;14521;48.148;-1.656;2023-04-25T02:05:36;3.13;;;0.82;;
26963;SDS011;14521;48.148;-1.656;2023-04-25T02:09:01;1.73;;;0.93;;
26963;SDS011;14521;48.148;-1.656;2023-04-25T02:12:24;2.55;;;1.00;;
26963;SDS011;14521;48.148;-1.656;2023-04-25T02:16:06;1.80;;;1.00;;
26963;SDS011;14521;48.148;-1.656;2023-04-25T02:19:32;1.90;;;0.85;;
26963;SDS011;14521;48.148;-1.656;2023-04-25T02:22:54;2.75;;;1.05;;
26963;SDS011;14521;48.148;-1.656;2023-04-25T02:26:17;2.35;;;1.38;;
26963;SDS011;14521;48.148;-1.656;2023-04-25T02:29:39;3.85;;;1.02;;
26963;SDS011;14521;48.148;-1.656;2023-04-25T02:33:05;2.35;;;0.85;;
26963;SDS011;14521;48.148;-1.656;2023-04-25T02:36:27;4.70;;;0.82;;
26963;SDS011;14521;48.148;-1.656;2023-04-25T02:39:52;3.77;;;0.90;;
26963;SDS011;14521;48.148;-1.656;2023-04-25T02:43:14;3.50;;;0.90;;
26963;SDS011;14521;48.148;-1.656;2023-04-25T02:46:38;2.47;;;0.90;;
26963;SDS011;14521;48.148;-1.656;2023-04-25T02:50:00;2.22;;;1.00;;
26963;SDS011;14521;48.148;-1.656;2023-04-25T02:53:23;2.33;;;1.10;;
26963;SDS011;14521;48.148;-1.656;2023-04-25T02:56:47;0.52;;;0.52;;
26963;SDS011;14521;48.148;-1.656;2023-04-25T03:00:16;0.95;;;0.60;;
26963;SDS011;14521;48.148;-1.656;2023-04-25T03:03:38;2.13;;;1.08;;
26963;SDS011;14521;48.148;-1.656;2023-04-25T03:07:01;1.98;;;1.10;;
26963;SDS011;14521;48.148;-1.656;2023-04-25T03:10:23;1.25;;;0.73;;
26963;SDS011;14521;48.148;-1.656;2023-04-25T03:13:46;1.40;;;0.95;;
26963;SDS011;14521;48.148;-1.656;2023-04-25T03:17:08;1.95;;;0.80;;
26963;SDS011;14521;48.148;-1.656;2023-04-25T03:20:30;2.42;;;0.77;;
26963;SDS011;14521;48.148;-1.656;2023-04-25T03:23:53;2.92;;;0.80;;
26963;SDS011;14521;48.148;-1.656;2023-04-25T03:27:15;1.00;;;0.90;;
26963;SDS011;14521;48.148;-1.656;2023-04-25T03:30:38;0.95;;;0.70;;
26963;SDS011;14521;48.148;-1.656;2023-04-25T03:34:00;3.03;;;1.13;;
26963;SDS011;14521;48.148;-1.656;2023-04-25T03:37:23;1.40;;;1.05;;
26963;SDS011;14521;48.148;-1.656;2023-04-25T03:40:45;3.42;;;0.77;;
26963;SDS011;14521;48.148;-1.656;2023-04-25T03:44:29;2.00;;;0.88;;
26963;SDS011;14521;48.148;-1.656;2023-04-25T03:47:51;3.10;;;1.05;;
26963;SDS011;14521;48.148;-1.656;2023-04-25T03:51:14;1.00;;;0.80;;
26963;SDS011;14521;48.148;-1.656;2023-04-25T03:54:39;1.00;;;0.95;;
26963;SDS011;14521;48.148;-1.656;2023-04-25T03:58:08;1.45;;;0.73;;
26963;SDS011;14521;48.148;-1.656;2023-04-25T04:01:31;2.20;;;0.73;;
26963;SDS011;14521;48.148;-1.656;2023-04-25T04:04:54;1.30;;;0.95;;
26963;SDS011;14521;48.148;-1.656;2023-04-25T04:08:18;1.67;;;0.90;;
26963;SDS011;14521;48.148;-1.656;2023-04-25T04:11:41;1.40;;;1.08;;
26963;SDS011;14521;48.148;-1.656;2023-04-25T04:15:04;1.65;;;1.05;;
26963;SDS011;14521;48.148;-1.656;2023-04-25T04:18:27;1.55;;;0.80;;
26963;SDS011;14521;48.148;-1.656;2023-04-25T04:21:51;5.80;;;0.82;;
26963;SDS011;14521;48.148;-1.656;2023-04-25T04:25:13;1.73;;;0.90;;
26963;SDS011;14521;48.148;-1.656;2023-04-25T04:28:54;2.92;;;0.75;;
26963;SDS011;14521;48.148;-1.656;2023-04-25T04:32:25;1.08;;;0.80;;
26963;SDS011;14521;48.148;-1.656;2023-04-25T04:35:50;1.53;;;0.93;;
26963;SDS011;14521;48.148;-1.656;2023-04-25T04:39:14;1.65;;;0.88;;
26963;SDS011;14521;48.148;-1.656;2023-04-25T04:42:48;1.98;;;1.00;;
26963;SDS011;14521;48.148;-1.656;2023-04-25T04:46:40;1.65;;;0.90;;
26963;SDS011;14521;48.148;-1.656;2023-04-25T04:50:33;4.88;;;0.95;;
26963;SDS011;14521;48.148;-1.656;2023-04-25T04:54:22;1.83;;;0.73;;
26963;SDS011;14521;48.148;-1.656;2023-04-25T04:58:08;1.48;;;1.02;;
26963;SDS011;14521;48.148;-1.656;2023-04-25T05:01:40;1.02;;;0.88;;
26963;SDS011;14521;48.148;-1.656;2023-04-25T05:05:22;1.90;;;0.70;;
26963;SDS011;14521;48.148;-1.656;2023-04-25T05:09:13;0.90;;;0.90;;
26963;SDS011;14521;48.148;-1.656;2023-04-25T05:12:56;1.30;;;0.60;;
26963;SDS011;14521;48.148;-1.656;2023-04-25T05:16:38;1.92;;;0.82;;
26963;SDS011;14521;48.148;-1.656;2023-04-25T05:20:27;1.45;;;0.90;;
26963;SDS011;14521;48.148;-1.656;2023-04-25T05:24:16;2.85;;;0.73;;
26963;SDS011;14521;48.148;-1.656;2023-04-25T05:27:59;3.20;;;1.00;;
26963;SDS011;14521;48.148;-1.656;2023-04-25T05:31:40;1.88;;;0.88;;
26963;SDS011;14521;48.148;-1.656;2023-04-25T05:35:05;2.22;;;1.23;;
26963;SDS011;14521;48.148;-1.656;2023-04-25T05:38:35;1.85;;;1.15;;
26963;SDS011;14521;48.148;-1.656;2023-04-25T05:42:16;1.65;;;0.75;;
26963;SDS011;14521;48.148;-1.656;2023-04-25T05:45:44;1.48;;;0.80;;
26963;SDS011;14521;48.148;-1.656;2023-04-25T05:49:44;4.13;;;0.90;;
26963;SDS011;14521;48.148;-1.656;2023-04-25T05:53:20;1.52;;;0.93;;
26963;SDS011;14521;48.148;-1.656;2023-04-25T05:56:50;5.13;;;1.05;;
26963;SDS011;14521;48.148;-1.656;2023-04-25T06:00:13;7.35;;;1.08;;
26963;SDS011;14521;48.148;-1.656;2023-04-25T06:03:41;5.35;;;0.90;;
26963;SDS011;14521;48.148;-1.656;2023-04-25T06:07:05;8.65;;;0.80;;
26963;SDS011;14521;48.148;-1.656;2023-04-25T06:10:27;1.10;;;0.88;;
26963;SDS011;14521;48.148;-1.656;2023-04-25T06:13:50;1.85;;;0.77;;
26963;SDS011;14521;48.148;-1.656;2023-04-25T06:17:13;4.80;;;1.00;;
26963;SDS011;14521;48.148;-1.656;2023-04-25T06:20:35;2.00;;;0.50;;
26963;SDS011;14521;48.148;-1.656;2023-04-25T06:23:57;2.22;;;0.88;;
26963;SDS011;14521;48.148;-1.656;2023-04-25T06:27:20;2.33;;;0.70;;
26963;SDS011;14521;48.148;-1.656;2023-04-25T06:30:42;4.65;;;0.73;;
26963;SDS011;14521;48.148;-1.656;2023-04-25T06:34:08;5.50;;;0.70;;
26963;SDS011;14521;48.148;-1.656;2023-04-25T06:37:34;0.88;;;0.80;;
26963;SDS011;14521;48.148;-1.656;2023-04-25T06:40:56;1.35;;;0.70;;
26963;SDS011;14521;48.148;-1.656;2023-04-25T06:44:20;2.67;;;0.90;;
26963;SDS011;14521;48.148;-1.656;2023-04-25T06:47:46;2.17;;;0.60;;
26963;SDS011;14521;48.148;-1.656;2023-04-25T06:51:09;1.50;;;0.70;;
26963;SDS011;14521;48.148;-1.656;2023-04-25T06:54:33;1.45;;;0.70;;
26963;SDS011;14521;48.148;-1.656;2023-04-25T06:58:03;1.42;;;0.80;;
26963;SDS011;14521;48.148;-1.656;2023-04-25T07:01:46;3.03;;;1.00;;
26963;SDS011;14521;48.148;-1.656;2023-04-25T07:05:11;2.05;;;0.80;;
26963;SDS011;14521;48.148;-1.656;2023-04-25T07:08:34;1.15;;;0.65;;
26963;SDS011;14521;48.148;-1.656;2023-04-25T07:11:57;2.38;;;0.63;;
26963;SDS011;14521;48.148;-1.656;2023-04-25T07:15:19;0.93;;;0.63;;
26963;SDS011;14521;48.148;-1.656;2023-04-25T07:18:43;1.10;;;0.82;;
26963;SDS011;14521;48.148;-1.656;2023-04-25T07:22:06;0.88;;;0.63;;
26963;SDS011;14521;48.148;-1.656;2023-04-25T07:25:30;0.50;;;0.50;;
26963;SDS011;14521;48.148;-1.656;2023-04-25T07:28:56;1.08;;;0.55;;
26963;SDS011;14521;48.148;-1.656;2023-04-25T07:32:19;1.05;;;0.68;;
26963;SDS011;14521;48.148;-1.656;2023-04-25T07:35:41;2.05;;;0.77;;
26963;SDS011;14521;48.148;-1.656;2023-04-25T07:39:05;1.73;;;0.60;;
26963;SDS011;14521;48.148;-1.656;2023-04-25T07:42:28;1.13;;;0.60;;
26963;SDS011;14521;48.148;-1.656;2023-04-25T07:45:51;2.47;;;0.60;;
26963;SDS011;14521;48.148;-1.656;2023-04-25T07:49:14;1.60;;;0.88;;
26963;SDS011;14521;48.148;-1.656;2023-04-25T07:52:38;0.97;;;0.80;;
26963;SDS011;14521;48.148;-1.656;2023-04-25T07:56:10;0.88;;;0.63;;
26963;SDS011;14521;48.148;-1.656;2023-04-25T07:59:35;1.90;;;0.73;;
26963;SDS011;14521;48.148;-1.656;2023-04-25T08:02:58;4.55;;;0.85;;
26963;SDS011;14521;48.148;-1.656;2023-04-25T08:06:21;2.17;;;1.08;;
26963;SDS011;14521;48.148;-1.656;2023-04-25T08:09:53;1.83;;;1.52;;
26963;SDS011;14521;48.148;-1.656;2023-04-25T08:13:21;6.85;;;1.48;;
26963;SDS011;14521;48.148;-1.656;2023-04-25T08:16:43;2.72;;;1.45;;
26963;SDS011;14521;48.148;-1.656;2023-04-25T08:20:07;5.03;;;0.98;;
26963;SDS011;14521;48.148;-1.656;2023-04-25T08:23:30;1.45;;;1.15;;
26963;SDS011;14521;48.148;-1.656;2023-04-25T08:26:58;2.45;;;0.95;;
26963;SDS011;14521;48.148;-1.656;2023-04-25T08:30:22;2.20;;;1.00;;
26963;SDS011;14521;48.148;-1.656;2023-04-25T08:33:45;5.90;;;0.80;;
26963;SDS011;14521;48.148;-1.656;2023-04-25T08:37:30;2.07;;;0.90;;
26963;SDS011;14521;48.148;-1.656;2023-04-25T08:41:02;2.10;;;0.75;;
26963;SDS011;14521;48.148;-1.656;2023-04-25T08:44:26;3.15;;;0.80;;
26963;SDS011;14521;48.148;-1.656;2023-04-25T08:47:49;1.02;;;0.73;;
26963;SDS011;14521;48.148;-1.656;2023-04-25T08:51:15;3.92;;;1.15;;
26963;SDS011;14521;48.148;-1.656;2023-04-25T08:54:44;2.03;;;0.60;;
26963;SDS011;14521;48.148;-1.656;2023-04-25T08:58:09;1.70;;;0.83;;
26963;SDS011;14521;48.148;-1.656;2023-04-25T09:01:34;3.42;;;0.90;;
26963;SDS011;14521;48.148;-1.656;2023-04-25T09:05:00;3.00;;;0.73;;
26963;SDS011;14521;48.148;-1.656;2023-04-25T09:08:23;1.90;;;0.70;;
26963;SDS011;14521;48.148;-1.656;2023-04-25T09:11:46;1.27;;;0.70;;
26963;SDS011;14521;48.148;-1.656;2023-04-25T09:15:12;1.05;;;0.80;;
26963;SDS011;14521;48.148;-1.656;2023-04-25T09:19:04;1.10;;;1.00;;
26963;SDS011;14521;48.148;-1.656;2023-04-25T09:22:28;3.17;;;0.73;;
26963;SDS011;14521;48.148;-1.656;2023-04-25T09:25:52;2.05;;;0.90;;
26963;SDS011;14521;48.148;-1.656;2023-04-25T09:29:16;0.93;;;0.60;;
26963;SDS011;14521;48.148;-1.656;2023-04-25T09:32:38;1.75;;;0.63;;
26963;SDS011;14521;48.148;-1.656;2023-04-25T09:36:01;6.53;;;1.00;;
26963;SDS011;14521;48.148;-1.656;2023-04-25T09:39:51;2.88;;;0.77;;
26963;SDS011;14521;48.148;-1.656;2023-04-25T09:43:19;1.98;;;0.88;;
26963;SDS011;14521;48.148;-1.656;2023-04-25T09:46:46;1.27;;;0.90;;
26963;SDS011;14521;48.148;-1.656;2023-04-25T09:50:17;3.55;;;0.60;;
26963;SDS011;14521;48.148;-1.656;2023-04-25T09:53:47;2.65;;;0.65;;
26963;SDS011;14521;48.148;-1.656;2023-04-25T09:57:33;0.47;;;0.45;;
26963;SDS011;14521;48.148;-1.656;2023-04-25T10:01:10;1.02;;;0.80;;
26963;SDS011;14521;48.148;-1.656;2023-04-25T10:04:50;4.73;;;0.83;;
26963;SDS011;14521;48.148;-1.656;2023-04-25T10:08:21;0.57;;;0.50;;
26963;SDS011;14521;48.148;-1.656;2023-04-25T10:11:45;3.47;;;0.70;;
26963;SDS011;14521;48.148;-1.656;2023-04-25T10:15:09;1.60;;;0.50;;
26963;SDS011;14521;48.148;-1.656;2023-04-25T10:18:33;3.13;;;0.68;;
26963;SDS011;14521;48.148;-1.656;2023-04-25T10:25:36;5.30;;;0.80;;
26963;SDS011;14521;48.148;-1.656;2023-04-25T10:29:00;1.02;;;0.68;;
26963;SDS011;14521;48.148;-1.656;2023-04-25T10:32:24;1.80;;;0.63;;
26963;SDS011;14521;48.148;-1.656;2023-04-25T10:35:46;2.15;;;0.80;;
26963;SDS011;14521;48.148;-1.656;2023-04-25T10:39:08;1.23;;;0.52;;
26963;SDS011;14521;48.148;-1.656;2023-04-25T10:42:31;3.97;;;0.82;;
26963;SDS011;14521;48.148;-1.656;2023-04-25T10:45:54;2.42;;;0.50;;
26963;SDS011;14521;48.148;-1.656;2023-04-25T10:49:36;1.00;;;0.90;;
26963;SDS011;14521;48.148;-1.656;2023-04-25T10:53:14;15.23;;;8.77;;
26963;SDS011;14521;48.148;-1.656;2023-04-25T10:56:40;18.73;;;11.02;;
26963;SDS011;14521;48.148;-1.656;2023-04-25T11:00:07;24.98;;;12.05;;
26963;SDS011;14521;48.148;-1.656;2023-04-25T11:03:37;32.08;;;14.55;;
26963;SDS011;14521;48.148;-1.656;2023-04-25T11:10:35;31.63;;;11.90;;
26963;SDS011;14521;48.148;-1.656;2023-04-25T11:13:57;19.75;;;9.35;;
26963;SDS011;14521;48.148;-1.656;2023-04-25T11:17:20;15.52;;;7.35;;
26963;SDS011;14521;48.148;-1.656;2023-04-25T11:20:43;12.80;;;5.72;;
26963;SDS011;14521;48.148;-1.656;2023-04-25T11:24:05;12.32;;;6.00;;
26963;SDS011;14521;48.148;-1.656;2023-04-25T11:27:27;14.65;;;6.45;;
26963;SDS011;14521;48.148;-1.656;2023-04-25T11:30:50;13.50;;;5.47;;
26963;SDS011;14521;48.148;-1.656;2023-04-25T11:34:16;11.18;;;5.15;;
26963;SDS011;14521;48.148;-1.656;2023-04-25T11:37:42;11.82;;;6.15;;
26963;SDS011;14521;48.148;-1.656;2023-04-25T11:41:05;16.42;;;5.53;;
26963;SDS011;14521;48.148;-1.656;2023-04-25T11:44:28;8.07;;;5.20;;
26963;SDS011;14521;48.148;-1.656;2023-04-25T11:47:50;12.90;;;4.50;;
26963;SDS011;14521;48.148;-1.656;2023-04-25T11:51:13;11.45;;;4.45;;
26963;SDS011;14521;48.148;-1.656;2023-04-25T11:54:36;9.90;;;3.95;;
26963;SDS011;14521;48.148;-1.656;2023-04-25T11:57:59;7.85;;;3.72;;
26963;SDS011;14521;48.148;-1.656;2023-04-25T12:01:26;8.52;;;4.20;;
26963;SDS011;14521;48.148;-1.656;2023-04-25T12:04:58;6.65;;;3.20;;
26963;SDS011;14521;48.148;-1.656;2023-04-25T12:08:58;5.38;;;3.53;;
26963;SDS011;14521;48.148;-1.656;2023-04-25T12:12:34;6.13;;;3.00;;
26963;SDS011;14521;48.148;-1.656;2023-04-25T12:15:57;3.88;;;3.38;;
26963;SDS011;14521;48.148;-1.656;2023-04-25T12:19:19;5.70;;;3.00;;
26963;SDS011;14521;48.148;-1.656;2023-04-25T12:22:43;3.85;;;2.40;;
26963;SDS011;14521;48.148;-1.656;2023-04-25T12:26:08;5.95;;;2.92;;
26963;SDS011;14521;48.148;-1.656;2023-04-25T12:29:31;3.20;;;2.53;;
26963;SDS011;14521;48.148;-1.656;2023-04-25T12:33:09;4.35;;;2.30;;
26963;SDS011;14521;48.148;-1.656;2023-04-25T12:36:32;2.40;;;1.90;;
26963;SDS011;14521;48.148;-1.656;2023-04-25T12:39:54;7.88;;;2.17;;
26963;SDS011;14521;48.148;-1.656;2023-04-25T12:43:16;4.18;;;2.08;;
26963;SDS011;14521;48.148;-1.656;2023-04-25T12:46:40;3.05;;;2.70;;
26963;SDS011;14521;48.148;-1.656;2023-04-25T12:50:02;3.13;;;2.03;;
26963;SDS011;14521;48.148;-1.656;2023-04-25T12:53:25;6.68;;;2.03;;
26963;SDS011;14521;48.148;-1.656;2023-04-25T12:56:47;2.42;;;1.65;;
26963;SDS011;14521;48.148;-1.656;2023-04-25T13:00:10;3.55;;;1.73;;
26963;SDS011;14521;48.148;-1.656;2023-04-25T13:03:36;3.25;;;1.50;;
26963;SDS011;14521;48.148;-1.656;2023-04-25T13:06:58;2.05;;;1.38;;
26963;SDS011;14521;48.148;-1.656;2023-04-25T13:10:21;7.32;;;1.50;;
26963;SDS011;14521;48.148;-1.656;2023-04-25T13:13:44;1.83;;;1.33;;
26963;SDS011;14521;48.148;-1.656;2023-04-25T13:17:06;3.15;;;1.52;;
26963;SDS011;14521;48.148;-1.656;2023-04-25T13:20:28;2.30;;;1.40;;
26963;SDS011;14521;48.148;-1.656;2023-04-25T13:23:51;6.05;;;1.48;;
26963;SDS011;14521;48.148;-1.656;2023-04-25T13:27:13;1.63;;;1.10;;
26963;SDS011;14521;48.148;-1.656;2023-04-25T13:30:36;4.07;;;1.20;;
26963;SDS011;14521;48.148;-1.656;2023-04-25T13:33:58;2.90;;;1.48;;
26963;SDS011;14521;48.148;-1.656;2023-04-25T13:37:21;4.28;;;1.00;;
26963;SDS011;14521;48.148;-1.656;2023-04-25T13:40:45;1.45;;;0.93;;
26963;SDS011;14521;48.148;-1.656;2023-04-25T13:44:07;2.78;;;1.10;;
26963;SDS011;14521;48.148;-1.656;2023-04-25T13:47:30;2.28;;;1.05;;
26963;SDS011;14521;48.148;-1.656;2023-04-25T13:50:52;2.25;;;0.93;;
26963;SDS011;14521;48.148;-1.656;2023-04-25T13:54:14;2.17;;;1.00;;
26963;SDS011;14521;48.148;-1.656;2023-04-25T13:57:37;1.45;;;1.15;;
26963;SDS011;14521;48.148;-1.656;2023-04-25T14:01:02;1.45;;;0.88;;
26963;SDS011;14521;48.148;-1.656;2023-04-25T14:04:25;2.88;;;0.90;;
26963;SDS011;14521;48.148;-1.656;2023-04-25T14:07:47;1.10;;;1.00;;
26963;SDS011;14521;48.148;-1.656;2023-04-25T14:11:10;1.30;;;1.08;;
26963;SDS011;14521;48.148;-1.656;2023-04-25T14:14:32;2.17;;;0.98;;
26963;SDS011;14521;48.148;-1.656;2023-04-25T14:17:54;1.17;;;0.90;;
26963;SDS011;14521;48.148;-1.656;2023-04-25T14:21:17;1.85;;;0.95;;
26963;SDS011;14521;48.148;-1.656;2023-04-25T14:24:39;1.20;;;1.00;;
26963;SDS011;14521;48.148;-1.656;2023-04-25T14:28:01;1.48;;;0.85;;
26963;SDS011;14521;48.148;-1.656;2023-04-25T14:31:24;1.40;;;0.70;;
26963;SDS011;14521;48.148;-1.656;2023-04-25T14:34:46;0.90;;;0.80;;
26963;SDS011;14521;48.148;-1.656;2023-04-25T14:38:08;4.65;;;1.10;;
26963;SDS011;14521;48.148;-1.656;2023-04-25T14:41:31;4.40;;;0.98;;
26963;SDS011;14521;48.148;-1.656;2023-04-25T14:44:53;2.05;;;0.90;;
26963;SDS011;14521;48.148;-1.656;2023-04-25T14:48:16;2.20;;;0.93;;
26963;SDS011;14521;48.148;-1.656;2023-04-25T14:51:41;1.95;;;1.10;;
26963;SDS011;14521;48.148;-1.656;2023-04-25T14:55:03;0.85;;;0.85;;
26963;SDS011;14521;48.148;-1.656;2023-04-25T14:58:29;2.15;;;0.82;;
26963;SDS011;14521;48.148;-1.656;2023-04-25T15:01:51;1.50;;;1.10;;
26963;SDS011;14521;48.148;-1.656;2023-04-25T15:05:14;1.38;;;0.68;;
26963;SDS011;14521;48.148;-1.656;2023-04-25T15:08:37;1.02;;;0.82;;
26963;SDS011;14521;48.148;-1.656;2023-04-25T15:12:00;6.50;;;0.90;;
26963;SDS011;14521;48.148;-1.656;2023-04-25T15:15:22;1.00;;;0.90;;
26963;SDS011;14521;48.148;-1.656;2023-04-25T15:18:47;2.58;;;0.90;;
26963;SDS011;14521;48.148;-1.656;2023-04-25T15:22:10;0.93;;;0.70;;
26963;SDS011;14521;48.148;-1.656;2023-04-25T15:25:32;1.10;;;1.00;;
26963;SDS011;14521;48.148;-1.656;2023-04-25T15:28:54;1.38;;;0.70;;
26963;SDS011;14521;48.148;-1.656;2023-04-25T15:32:16;0.70;;;0.70;;
26963;SDS011;14521;48.148;-1.656;2023-04-25T15:35:39;1.00;;;0.70;;
26963;SDS011;14521;48.148;-1.656;2023-04-25T15:39:01;1.77;;;0.68;;
26963;SDS011;14521;48.148;-1.656;2023-04-25T15:42:24;1.95;;;0.70;;
26963;SDS011;14521;48.148;-1.656;2023-04-25T15:45:47;4.30;;;0.70;;
26963;SDS011;14521;48.148;-1.656;2023-04-25T15:49:09;0.90;;;0.90;;
26963;SDS011;14521;48.148;-1.656;2023-04-25T15:52:31;0.75;;;0.70;;
26963;SDS011;14521;48.148;-1.656;2023-04-25T15:55:54;0.88;;;0.65;;
26963;SDS011;14521;48.148;-1.656;2023-04-25T15:59:17;0.85;;;0.80;;
26963;SDS011;14521;48.148;-1.656;2023-04-25T16:02:39;2.38;;;0.50;;
26963;SDS011;14521;48.148;-1.656;2023-04-25T16:06:03;0.90;;;0.80;;
26963;SDS011;14521;48.148;-1.656;2023-04-25T16:09:25;1.33;;;0.70;;
26963;SDS011;14521;48.148;-1.656;2023-04-25T16:12:48;0.70;;;0.70;;
26963;SDS011;14521;48.148;-1.656;2023-04-25T16:16:11;2.70;;;0.73;;
26963;SDS011;14521;48.148;-1.656;2023-04-25T16:19:14;1.55;;;0.73;;
26963;SDS011;14521;48.148;-1.656;2023-04-25T16:22:16;2.75;;;0.70;;
26963;SDS011;14521;48.148;-1.656;2023-04-25T16:25:18;0.60;;;0.60;;
26963;SDS011;14521;48.148;-1.656;2023-04-25T16:28:22;4.03;;;0.63;;
26963;SDS011;14521;48.148;-1.656;2023-04-25T16:31:24;1.20;;;0.88;;
26963;SDS011;14521;48.148;-1.656;2023-04-25T16:34:27;6.10;;;0.60;;
26963;SDS011;14521;48.148;-1.656;2023-04-25T16:37:29;1.05;;;0.70;;
26963;SDS011;14521;48.148;-1.656;2023-04-25T16:40:31;1.73;;;0.65;;
26963;SDS011;14521;48.148;-1.656;2023-04-25T16:43:33;0.70;;;0.60;;
26963;SDS011;14521;48.148;-1.656;2023-04-25T16:46:35;4.43;;;0.70;;
26963;SDS011;14521;48.148;-1.656;2023-04-25T16:49:38;4.82;;;0.80;;
26963;SDS011;14521;48.148;-1.656;2023-04-25T16:52:41;0.82;;;0.70;;
26963;SDS011;14521;48.148;-1.656;2023-04-25T16:55:44;2.15;;;0.70;;
26963;SDS011;14521;48.148;-1.656;2023-04-25T16:58:47;2.42;;;0.65;;
26963;SDS011;14521;48.148;-1.656;2023-04-25T17:01:50;1.27;;;0.52;;
26963;SDS011;14521;48.148;-1.656;2023-04-25T17:04:52;0.55;;;0.55;;
26963;SDS011;14521;48.148;-1.656;2023-04-25T17:07:54;5.70;;;0.60;;
26963;SDS011;14521;48.148;-1.656;2023-04-25T17:10:57;2.03;;;0.55;;
26963;SDS011;14521;48.148;-1.656;2023-04-25T17:14:19;1.95;;;0.70;;
26963;SDS011;14521;48.148;-1.656;2023-04-25T17:17:21;0.55;;;0.55;;
26963;SDS011;14521;48.148;-1.656;2023-04-25T17:20:23;0.85;;;0.85;;
26963;SDS011;14521;48.148;-1.656;2023-04-25T17:23:25;0.90;;;0.90;;
26963;SDS011;14521;48.148;-1.656;2023-04-25T17:26:27;5.00;;;0.60;;
26963;SDS011;14521;48.148;-1.656;2023-04-25T17:29:29;0.60;;;0.60;;
26963;SDS011;14521;48.148;-1.656;2023-04-25T17:32:33;0.70;;;0.60;;
26963;SDS011;14521;48.148;-1.656;2023-04-25T17:35:35;0.45;;;0.40;;
26963;SDS011;14521;48.148;-1.656;2023-04-25T17:38:37;2.83;;;0.70;;
26963;SDS011;14521;48.148;-1.656;2023-04-25T17:41:39;1.38;;;0.60;;
26963;SDS011;14521;48.148;-1.656;2023-04-25T17:44:42;0.90;;;0.63;;
26963;SDS011;14521;48.148;-1.656;2023-04-25T17:47:44;6.32;;;0.80;;
26963;SDS011;14521;48.148;-1.656;2023-04-25T17:50:47;2.42;;;0.68;;
26963;SDS011;14521;48.148;-1.656;2023-04-25T17:54:08;3.00;;;0.70;;
26963;SDS011;14521;48.148;-1.656;2023-04-25T17:57:30;5.68;;;0.68;;
26963;SDS011;14521;48.148;-1.656;2023-04-25T18:00:53;2.25;;;0.70;;
26963;SDS011;14521;48.148;-1.656;2023-04-25T18:04:15;1.85;;;0.80;;
26963;SDS011;14521;48.148;-1.656;2023-04-25T18:07:38;2.90;;;1.38;;
26963;SDS011;14521;48.148;-1.656;2023-04-25T18:11:02;5.05;;;2.00;;
26963;SDS011;14521;48.148;-1.656;2023-04-25T18:14:25;2.80;;;2.47;;
26963;SDS011;14521;48.148;-1.656;2023-04-25T18:17:47;4.68;;;2.25;;
26963;SDS011;14521;48.148;-1.656;2023-04-25T18:21:10;5.88;;;3.08;;
26963;SDS011;14521;48.148;-1.656;2023-04-25T18:24:32;32.17;;;15.77;;
26963;SDS011;14521;48.148;-1.656;2023-04-25T18:27:54;48.05;;;22.92;;
26963;SDS011;14521;48.148;-1.656;2023-04-25T18:31:18;60.70;;;28.17;;
26963;SDS011;14521;48.148;-1.656;2023-04-25T18:34:44;50.00;;;25.23;;
26963;SDS011;14521;48.148;-1.656;2023-04-25T18:38:10;52.58;;;25.65;;
26963;SDS011;14521;48.148;-1.656;2023-04-25T18:41:37;53.55;;;24.90;;
26963;SDS011;14521;48.148;-1.656;2023-04-25T18:45:19;48.40;;;24.05;;
26963;SDS011;14521;48.148;-1.656;2023-04-25T18:48:41;43.90;;;22.05;;
26963;SDS011;14521;48.148;-1.656;2023-04-25T18:52:04;46.28;;;21.23;;
26963;SDS011;14521;48.148;-1.656;2023-04-25T18:55:32;41.03;;;21.05;;
26963;SDS011;14521;48.148;-1.656;2023-04-25T18:58:55;38.35;;;19.38;;
26963;SDS011;14521;48.148;-1.656;2023-04-25T19:02:18;34.65;;;19.08;;
26963;SDS011;14521;48.148;-1.656;2023-04-25T19:05:40;32.20;;;17.63;;
26963;SDS011;14521;48.148;-1.656;2023-04-25T19:09:03;29.52;;;15.57;;
26963;SDS011;14521;48.148;-1.656;2023-04-25T19:12:25;28.67;;;13.48;;
26963;SDS011;14521;48.148;-1.656;2023-04-25T19:15:47;27.08;;;13.02;;
26963;SDS011;14521;48.148;-1.656;2023-04-25T19:19:09;18.98;;;11.45;;
26963;SDS011;14521;48.148;-1.656;2023-04-25T19:22:32;23.60;;;12.05;;
26963;SDS011;14521;48.148;-1.656;2023-04-25T19:25:54;21.85;;;11.07;;
26963;SDS011;14521;48.148;-1.656;2023-04-25T19:29:17;19.88;;;10.43;;
26963;SDS011;14521;48.148;-1.656;2023-04-25T19:32:39;17.95;;;10.20;;
26963;SDS011;14521;48.148;-1.656;2023-04-25T19:36:01;15.30;;;8.80;;
26963;SDS011;14521;48.148;-1.656;2023-04-25T19:39:24;17.95;;;8.10;;
26963;SDS011;14521;48.148;-1.656;2023-04-25T19:42:47;19.52;;;9.10;;
26963;SDS011;14521;48.148;-1.656;2023-04-25T19:46:09;15.23;;;7.13;;
26963;SDS011;14521;48.148;-1.656;2023-04-25T19:49:32;15.82;;;8.00;;
26963;SDS011;14521;48.148;-1.656;2023-04-25T19:52:54;9.43;;;6.60;;
26963;SDS011;14521;48.148;-1.656;2023-04-25T19:56:17;12.55;;;7.18;;
26963;SDS011;14521;48.148;-1.656;2023-04-25T19:59:39;11.73;;;6.25;;
26963;SDS011;14521;48.148;-1.656;2023-04-25T20:03:02;10.88;;;5.80;;
26963;SDS011;14521;48.148;-1.656;2023-04-25T20:06:25;14.18;;;5.43;;
26963;SDS011;14521;48.148;-1.656;2023-04-25T20:09:48;9.30;;;5.10;;